• Join FlightAware (Why Join?)
  • Login
  • US Flag 
01:12PM EDT


 

Airport Tracker/Info


-or-


 

Live Flight TrackerFlight Track Log ✈ ASQ4633 ✈ 28-Apr-2013 ✈ KEWR - KBTV

Flight Track Log - Related Links

Times and Time Zones

All times are in EDT time to prevent confusion due to time zone crossing. See the ASQ4633 flight status page for this flight to view local times or setup timezone preferences in your user account.

Time Position Orientation Groundspeed Altitude Reporting Facility
EDT Latitude Longitude Course Direction KTS MPH feet Rate Location/Type
02:05PM 40.6333 -74.2000 27° Northeast 211 243 2,900  Level New York TRACON
02:06PM 40.6833 -74.2167 346° North 277 319 5,300 1,560 Climbing New York TRACON
02:07PM 40.7500 -74.1833 21° North 267 307 6,100 1,860 Climbing New York TRACON
02:08PM 40.9579 -73.8588 37° Northeast  Level FlightAware Approximate
02:08PM 40.8167 -74.1167 37° Northeast 271 312 9,100  Level New York TRACON
02:09PM 41.0312 -73.7817 40° Northeast  Level FlightAware Approximate
02:09PM 40.8833 -74.0333 43° Northeast 333 383 10,000  Level New York TRACON
02:10PM 41.1026 -73.7013 40° Northeast  Level FlightAware Approximate
02:11PM 41.1709 -73.6416 27° Northeast  Level FlightAware Approximate
02:12PM 41.0433 -73.8492 41° Northeast 367 422 13,900  Level Boston Center
02:13PM 41.1236 -73.7489 43° Northeast 367 422 16,100 1,980 Climbing Boston Center
02:14PM 41.1911 -73.6703 41° Northeast 361 415 17,900 1,560 Climbing Boston Center
02:15PM 41.2692 -73.5750 43° Northeast 366 421 19,300 1,440 Climbing Boston Center
02:16PM 41.3453 -73.4825 42° Northeast 371 427 20,800 1,260 Climbing Boston Center
02:17PM 41.4231 -73.3869 43° Northeast 371 427 21,900 1,020 Climbing Boston Center
02:18PM 41.5075 -73.2800 43° Northeast 383 441 22,900 1,020 Climbing Boston Center
02:19PM 41.5914 -73.1672 45° Northeast 383 441 24,000 960 Climbing Boston Center
02:20PM 41.6981 -73.1158 20° North 394 453 24,900 480 Climbing Boston Center
02:21PM 41.8083 -73.1392 351° North 371 427 25,000  Climbing Boston Center
02:22PM 41.9147 -73.1569 353° North 371 427 25,000  Level Boston Center
02:23PM 42.0208 -73.1778 352° North 377 434 25,000  Level Boston Center
02:24PM 42.1311 -73.1931 354° North 387 445 25,000  Level Boston Center
02:25PM 42.2394 -73.1944 359° North 387 445 25,000  Level Boston Center
02:26PM 42.3647 -73.1764 North 393 452 25,000  Level Boston Center
02:27PM 42.4731 -73.1803 358° North 393 452 25,000  Level Boston Center
02:28PM 42.5814 -73.1789 North 393 452 25,000  Level Boston Center
02:29PM 42.7064 -73.1831 359° North 398 458 25,000  Level Boston Center
02:30PM 42.8169 -73.1844 359° North 398 458 25,000  Level Boston Center
02:31PM 42.9253 -73.1800 North 398 458 25,000  Level Boston Center
02:32PM 43.0378 -73.1786 North 398 458 25,000  Level Boston Center
02:33PM 43.1483 -73.1772 North 398 458 25,000 -120 Level Boston Center
02:34PM 43.2608 -73.1756 North 398 458 24,800 -600 Descending Boston Center
02:35PM 43.3714 -73.1742 North 398 458 23,900 -900 Descending Boston Center
02:36PM 43.4797 -73.1697 North 398 458 23,100 -1,080 Descending Boston Center
02:37PM 43.5881 -73.1681 North 392 451 21,800 -1,860 Descending Boston Center
02:38PM 43.6944 -73.1667 North 392 451 19,400 -2,280 Descending Boston Center
02:39PM 43.7986 -73.1650 North 380 437 17,300 -2,340 Descending Boston Center
02:40PM 43.8964 -73.1633 North 365 420 14,800 -2,340 Descending Boston Center
02:41PM 43.9944 -73.1644 360° North 353 406 12,700 -1,920 Descending Boston Center
02:42PM 44.0858 -73.1972 346° North 348 400 11,000 -1,500 Descending Boston Center
02:43PM 44.1628 -73.2331 342° North 310 357 9,800 -1,500 Descending Boston Center
02:44PM 44.2269 -73.2744 335° Northwest 282 325 8,100 -1,680 Descending Boston Center
02:45PM 44.2933 -73.3158 336° Northwest 264 304 6,500 -1,440 Descending Boston Center
02:46PM 44.3581 -73.3111 North 238 274 5,300 -1,200 Descending Boston Center